sensor_id;sensor_type;location;lat;lon;timestamp;temperature;humidity
71754;DHT22;59593;51.716;7.016;2023-11-21T00:00:37;7.20;99.90
71754;DHT22;59593;51.716;7.016;2023-11-21T00:03:03;7.20;99.90
71754;DHT22;59593;51.716;7.016;2023-11-21T00:05:29;7.20;99.90
71754;DHT22;59593;51.716;7.016;2023-11-21T00:07:55;7.20;99.90
71754;DHT22;59593;51.716;7.016;2023-11-21T00:10:20;7.20;99.90
71754;DHT22;59593;51.716;7.016;2023-11-21T00:12:46;7.20;99.90
71754;DHT22;59593;51.716;7.016;2023-11-21T00:15:14;7.20;99.90
71754;DHT22;59593;51.716;7.016;2023-11-21T00:17:40;7.40;99.90
71754;DHT22;59593;51.716;7.016;2023-11-21T00:20:06;7.50;99.90
71754;DHT22;59593;51.716;7.016;2023-11-21T00:22:35;7.70;99.90
71754;DHT22;59593;51.716;7.016;2023-11-21T00:25:01;7.70;99.90
71754;DHT22;59593;51.716;7.016;2023-11-21T00:27:29;7.60;99.90
71754;DHT22;59593;51.716;7.016;2023-11-21T00:29:54;7.70;99.90
71754;DHT22;59593;51.716;7.016;2023-11-21T00:32:20;7.70;99.90
71754;DHT22;59593;51.716;7.016;2023-11-21T00:34:46;7.70;99.90
71754;DHT22;59593;51.716;7.016;2023-11-21T00:37:11;7.70;99.90
71754;DHT22;59593;51.716;7.016;2023-11-21T00:39:37;7.70;99.90
71754;DHT22;59593;51.716;7.016;2023-11-21T00:42:02;7.80;99.90
71754;DHT22;59593;51.716;7.016;2023-11-21T00:44:30;7.80;99.90
71754;DHT22;59593;51.716;7.016;2023-11-21T00:46:55;7.70;99.90
71754;DHT22;59593;51.716;7.016;2023-11-21T00:49:21;7.80;99.90
71754;DHT22;59593;51.716;7.016;2023-11-21T00:51:47;8.00;99.90
71754;DHT22;59593;51.716;7.016;2023-11-21T00:54:12;8.00;99.90
71754;DHT22;59593;51.716;7.016;2023-11-21T00:56:38;8.00;99.90
71754;DHT22;59593;51.716;7.016;2023-11-21T00:59:03;7.90;99.90
71754;DHT22;59593;51.716;7.016;2023-11-21T01:01:30;7.80;99.90
71754;DHT22;59593;51.716;7.016;2023-11-21T01:03:56;7.70;99.90
71754;DHT22;59593;51.716;7.016;2023-11-21T01:06:21;7.60;99.90
71754;DHT22;59593;51.716;7.016;2023-11-21T01:08:47;7.60;99.90
71754;DHT22;59593;51.716;7.016;2023-11-21T01:11:12;7.50;99.90
71754;DHT22;59593;51.716;7.016;2023-11-21T01:13:41;7.50;99.90
71754;DHT22;59593;51.716;7.016;2023-11-21T01:16:08;7.40;99.90
71754;DHT22;59593;51.716;7.016;2023-11-21T01:18:35;7.40;99.90
71754;DHT22;59593;51.716;7.016;2023-11-21T01:21:01;7.50;99.90
71754;DHT22;59593;51.716;7.016;2023-11-21T01:23:27;7.40;99.90
71754;DHT22;59593;51.716;7.016;2023-11-21T01:25:53;7.30;99.90
71754;DHT22;59593;51.716;7.016;2023-11-21T01:28:19;7.30;99.90
71754;DHT22;59593;51.716;7.016;2023-11-21T01:30:45;7.20;99.90
71754;DHT22;59593;51.716;7.016;2023-11-21T01:33:11;7.10;99.90
71754;DHT22;59593;51.716;7.016;2023-11-21T01:35:36;7.10;99.90
71754;DHT22;59593;51.716;7.016;2023-11-21T01:38:02;7.10;99.90
71754;DHT22;59593;51.716;7.016;2023-11-21T01:40:29;7.10;99.90
71754;DHT22;59593;51.716;7.016;2023-11-21T01:42:56;7.10;99.90
71754;DHT22;59593;51.716;7.016;2023-11-21T01:45:22;7.00;99.90
71754;DHT22;59593;51.716;7.016;2023-11-21T01:47:50;6.90;99.90
71754;DHT22;59593;51.716;7.016;2023-11-21T01:50:17;7.00;99.90
71754;DHT22;59593;51.716;7.016;2023-11-21T01:52:45;6.90;99.90
71754;DHT22;59593;51.716;7.016;2023-11-21T01:55:11;6.70;99.90
71754;DHT22;59593;51.716;7.016;2023-11-21T01:57:38;6.70;99.90
71754;DHT22;59593;51.716;7.016;2023-11-21T02:00:04;6.70;99.90
71754;DHT22;59593;51.716;7.016;2023-11-21T02:02:46;6.70;99.90
71754;DHT22;59593;51.716;7.016;2023-11-21T02:05:14;6.80;99.90
71754;DHT22;59593;51.716;7.016;2023-11-21T02:07:41;6.90;99.90
71754;DHT22;59593;51.716;7.016;2023-11-21T02:10:08;7.00;99.90
71754;DHT22;59593;51.716;7.016;2023-11-21T02:12:35;7.00;99.90
71754;DHT22;59593;51.716;7.016;2023-11-21T02:15:03;7.00;99.90
71754;DHT22;59593;51.716;7.016;2023-11-21T02:17:37;7.10;99.90
71754;DHT22;59593;51.716;7.016;2023-11-21T02:20:03;7.00;99.90
71754;DHT22;59593;51.716;7.016;2023-11-21T02:22:33;7.00;99.90
71754;DHT22;59593;51.716;7.016;2023-11-21T02:25:02;7.00;99.90
71754;DHT22;59593;51.716;7.016;2023-11-21T02:27:28;6.90;99.90
71754;DHT22;59593;51.716;7.016;2023-11-21T02:29:54;6.80;99.90
71754;DHT22;59593;51.716;7.016;2023-11-21T02:32:19;6.80;99.90
71754;DHT22;59593;51.716;7.016;2023-11-21T02:34:48;6.70;99.90
71754;DHT22;59593;51.716;7.016;2023-11-21T02:37:13;6.80;99.90
71754;DHT22;59593;51.716;7.016;2023-11-21T02:39:39;6.70;99.90
71754;DHT22;59593;51.716;7.016;2023-11-21T02:42:05;6.70;99.90
71754;DHT22;59593;51.716;7.016;2023-11-21T02:44:30;6.80;99.90
71754;DHT22;59593;51.716;7.016;2023-11-21T02:46:56;6.80;99.90
71754;DHT22;59593;51.716;7.016;2023-11-21T02:49:23;6.80;99.90
71754;DHT22;59593;51.716;7.016;2023-11-21T02:51:48;6.80;99.90
71754;DHT22;59593;51.716;7.016;2023-11-21T02:54:14;6.80;99.90
71754;DHT22;59593;51.716;7.016;2023-11-21T02:56:39;6.90;99.90
71754;DHT22;59593;51.716;7.016;2023-11-21T02:59:05;6.80;99.90
71754;DHT22;59593;51.716;7.016;2023-11-21T03:01:31;6.80;99.90
71754;DHT22;59593;51.716;7.016;2023-11-21T03:03:57;6.90;99.90
71754;DHT22;59593;51.716;7.016;2023-11-21T03:06:22;6.90;99.90
71754;DHT22;59593;51.716;7.016;2023-11-21T03:08:49;6.90;99.90
71754;DHT22;59593;51.716;7.016;2023-11-21T03:11:14;6.90;99.90
71754;DHT22;59593;51.716;7.016;2023-11-21T03:13:41;7.00;99.90
71754;DHT22;59593;51.716;7.016;2023-11-21T03:16:10;7.00;99.90
71754;DHT22;59593;51.716;7.016;2023-11-21T03:18:36;7.10;99.90
71754;DHT22;59593;51.716;7.016;2023-11-21T03:21:03;7.10;99.90
71754;DHT22;59593;51.716;7.016;2023-11-21T03:23:29;7.10;99.90
71754;DHT22;59593;51.716;7.016;2023-11-21T03:25:54;7.20;99.90
71754;DHT22;59593;51.716;7.016;2023-11-21T03:28:20;7.20;99.90
71754;DHT22;59593;51.716;7.016;2023-11-21T03:30:45;7.20;99.90
71754;DHT22;59593;51.716;7.016;2023-11-21T03:33:11;7.20;99.90
71754;DHT22;59593;51.716;7.016;2023-11-21T03:35:37;7.30;99.90
71754;DHT22;59593;51.716;7.016;2023-11-21T03:38:03;7.30;99.90
71754;DHT22;59593;51.716;7.016;2023-11-21T03:40:30;7.30;99.90
71754;DHT22;59593;51.716;7.016;2023-11-21T03:42:57;7.30;99.90
71754;DHT22;59593;51.716;7.016;2023-11-21T03:45:22;7.20;99.90
71754;DHT22;59593;51.716;7.016;2023-11-21T03:47:48;7.20;99.90
71754;DHT22;59593;51.716;7.016;2023-11-21T03:50:14;7.30;99.90
71754;DHT22;59593;51.716;7.016;2023-11-21T03:52:39;7.30;99.90
71754;DHT22;59593;51.716;7.016;2023-11-21T03:55:05;7.30;99.90
71754;DHT22;59593;51.716;7.016;2023-11-21T03:57:30;7.20;99.90
71754;DHT22;59593;51.716;7.016;2023-11-21T03:59:56;7.30;99.90
71754;DHT22;59593;51.716;7.016;2023-11-21T04:02:21;7.30;99.90
71754;DHT22;59593;51.716;7.016;2023-11-21T04:04:47;7.30;99.90
71754;DHT22;59593;51.716;7.016;2023-11-21T04:07:13;7.20;99.90
71754;DHT22;59593;51.716;7.016;2023-11-21T04:09:39;7.20;99.90
71754;DHT22;59593;51.716;7.016;2023-11-21T04:12:05;7.20;99.90
71754;DHT22;59593;51.716;7.016;2023-11-21T04:14:30;7.30;99.90
71754;DHT22;59593;51.716;7.016;2023-11-21T04:16:57;7.40;99.90
71754;DHT22;59593;51.716;7.016;2023-11-21T04:19:22;7.40;99.90
71754;DHT22;59593;51.716;7.016;2023-11-21T04:21:48;7.40;99.90
71754;DHT22;59593;51.716;7.016;2023-11-21T04:24:13;7.40;99.90
71754;DHT22;59593;51.716;7.016;2023-11-21T04:26:39;7.30;99.90
71754;DHT22;59593;51.716;7.016;2023-11-21T04:29:04;7.30;99.90
71754;DHT22;59593;51.716;7.016;2023-11-21T04:31:30;7.30;99.90
71754;DHT22;59593;51.716;7.016;2023-11-21T04:33:56;7.20;99.90
71754;DHT22;59593;51.716;7.016;2023-11-21T04:36:21;7.10;99.90
71754;DHT22;59593;51.716;7.016;2023-11-21T04:38:47;7.00;99.90
71754;DHT22;59593;51.716;7.016;2023-11-21T04:41:12;6.90;99.90
71754;DHT22;59593;51.716;7.016;2023-11-21T04:43:38;6.90;99.90
71754;DHT22;59593;51.716;7.016;2023-11-21T04:46:04;6.90;99.90
71754;DHT22;59593;51.716;7.016;2023-11-21T04:48:29;6.90;99.90
71754;DHT22;59593;51.716;7.016;2023-11-21T04:50:55;6.90;99.90
71754;DHT22;59593;51.716;7.016;2023-11-21T04:53:20;6.90;99.90
71754;DHT22;59593;51.716;7.016;2023-11-21T04:55:46;6.90;99.90
71754;DHT22;59593;51.716;7.016;2023-11-21T04:58:12;6.80;99.90
71754;DHT22;59593;51.716;7.016;2023-11-21T05:00:37;6.80;99.90
71754;DHT22;59593;51.716;7.016;2023-11-21T05:03:03;6.80;99.90
71754;DHT22;59593;51.716;7.016;2023-11-21T05:05:30;6.70;99.90
71754;DHT22;59593;51.716;7.016;2023-11-21T05:07:56;6.60;99.90
71754;DHT22;59593;51.716;7.016;2023-11-21T05:10:21;6.60;99.90
71754;DHT22;59593;51.716;7.016;2023-11-21T05:12:49;6.60;99.90
71754;DHT22;59593;51.716;7.016;2023-11-21T05:15:16;6.70;99.90
71754;DHT22;59593;51.716;7.016;2023-11-21T05:17:43;6.70;99.90
71754;DHT22;59593;51.716;7.016;2023-11-21T05:20:15;6.70;99.90
71754;DHT22;59593;51.716;7.016;2023-11-21T05:22:47;6.70;99.90
71754;DHT22;59593;51.716;7.016;2023-11-21T05:25:14;6.70;99.90
71754;DHT22;59593;51.716;7.016;2023-11-21T05:27:39;6.70;99.90
71754;DHT22;59593;51.716;7.016;2023-11-21T05:30:06;6.70;99.90
71754;DHT22;59593;51.716;7.016;2023-11-21T05:32:32;6.70;99.90
71754;DHT22;59593;51.716;7.016;2023-11-21T05:34:58;6.60;99.90
71754;DHT22;59593;51.716;7.016;2023-11-21T05:37:24;6.50;99.90
71754;DHT22;59593;51.716;7.016;2023-11-21T05:39:51;6.50;99.90
71754;DHT22;59593;51.716;7.016;2023-11-21T05:42:16;6.50;99.90
71754;DHT22;59593;51.716;7.016;2023-11-21T05:44:42;6.60;99.90
71754;DHT22;59593;51.716;7.016;2023-11-21T05:47:11;6.70;99.90
71754;DHT22;59593;51.716;7.016;2023-11-21T05:49:37;6.70;99.90
71754;DHT22;59593;51.716;7.016;2023-11-21T05:52:02;6.80;99.90
71754;DHT22;59593;51.716;7.016;2023-11-21T05:54:28;6.60;99.90
71754;DHT22;59593;51.716;7.016;2023-11-21T05:56:54;6.60;99.90
71754;DHT22;59593;51.716;7.016;2023-11-21T05:59:19;6.60;99.90
71754;DHT22;59593;51.716;7.016;2023-11-21T06:01:45;6.70;99.90
71754;DHT22;59593;51.716;7.016;2023-11-21T06:04:13;6.80;99.90
71754;DHT22;59593;51.716;7.016;2023-11-21T06:06:39;6.90;99.90
71754;DHT22;59593;51.716;7.016;2023-11-21T06:09:04;7.00;99.90
71754;DHT22;59593;51.716;7.016;2023-11-21T06:11:31;7.00;99.90
71754;DHT22;59593;51.716;7.016;2023-11-21T06:13:57;7.10;99.90
71754;DHT22;59593;51.716;7.016;2023-11-21T06:16:23;7.20;99.90
71754;DHT22;59593;51.716;7.016;2023-11-21T06:18:49;7.20;99.90
71754;DHT22;59593;51.716;7.016;2023-11-21T06:21:15;7.20;99.90
71754;DHT22;59593;51.716;7.016;2023-11-21T06:23:42;7.20;99.90
71754;DHT22;59593;51.716;7.016;2023-11-21T06:26:08;7.10;99.90
71754;DHT22;59593;51.716;7.016;2023-11-21T06:28:34;7.10;99.90
71754;DHT22;59593;51.716;7.016;2023-11-21T06:31:01;7.10;99.90
71754;DHT22;59593;51.716;7.016;2023-11-21T06:33:31;7.20;99.90
71754;DHT22;59593;51.716;7.016;2023-11-21T06:35:57;7.30;99.90
71754;DHT22;59593;51.716;7.016;2023-11-21T06:38:23;7.30;99.90
71754;DHT22;59593;51.716;7.016;2023-11-21T06:40:48;7.40;99.90
71754;DHT22;59593;51.716;7.016;2023-11-21T06:43:14;7.40;99.90
71754;DHT22;59593;51.716;7.016;2023-11-21T06:45:40;7.40;99.90
71754;DHT22;59593;51.716;7.016;2023-11-21T06:48:06;7.40;99.90
71754;DHT22;59593;51.716;7.016;2023-11-21T06:50:32;7.40;99.90
71754;DHT22;59593;51.716;7.016;2023-11-21T06:52:57;7.40;99.90
71754;DHT22;59593;51.716;7.016;2023-11-21T06:55:23;7.40;99.90
71754;DHT22;59593;51.716;7.016;2023-11-21T06:57:48;7.40;99.90
71754;DHT22;59593;51.716;7.016;2023-11-21T07:00:16;7.50;99.90
71754;DHT22;59593;51.716;7.016;2023-11-21T07:02:43;7.40;99.90
71754;DHT22;59593;51.716;7.016;2023-11-21T07:05:09;7.50;99.90
71754;DHT22;59593;51.716;7.016;2023-11-21T07:07:35;7.50;99.90
71754;DHT22;59593;51.716;7.016;2023-11-21T07:10:02;7.50;99.90
71754;DHT22;59593;51.716;7.016;2023-11-21T07:12:30;7.50;99.90
71754;DHT22;59593;51.716;7.016;2023-11-21T07:14:56;7.50;99.90
71754;DHT22;59593;51.716;7.016;2023-11-21T07:17:22;7.60;99.90
71754;DHT22;59593;51.716;7.016;2023-11-21T07:19:48;7.60;99.90
71754;DHT22;59593;51.716;7.016;2023-11-21T07:22:15;7.70;99.90
71754;DHT22;59593;51.716;7.016;2023-11-21T07:24:48;7.80;99.90
71754;DHT22;59593;51.716;7.016;2023-11-21T07:27:14;7.70;99.90
71754;DHT22;59593;51.716;7.016;2023-11-21T07:29:39;7.80;99.90
71754;DHT22;59593;51.716;7.016;2023-11-21T07:32:06;7.90;99.90
71754;DHT22;59593;51.716;7.016;2023-11-21T07:34:31;7.90;99.90
71754;DHT22;59593;51.716;7.016;2023-11-21T07:36:57;8.00;99.90
71754;DHT22;59593;51.716;7.016;2023-11-21T07:39:22;7.90;99.90
71754;DHT22;59593;51.716;7.016;2023-11-21T07:41:48;7.90;99.90
71754;DHT22;59593;51.716;7.016;2023-11-21T07:44:16;7.90;99.90
71754;DHT22;59593;51.716;7.016;2023-11-21T07:46:42;7.90;99.90
71754;DHT22;59593;51.716;7.016;2023-11-21T07:49:08;7.90;99.90
71754;DHT22;59593;51.716;7.016;2023-11-21T07:51:34;7.80;99.90
71754;DHT22;59593;51.716;7.016;2023-11-21T07:54:00;7.80;99.90
71754;DHT22;59593;51.716;7.016;2023-11-21T07:56:26;7.70;99.90
71754;DHT22;59593;51.716;7.016;2023-11-21T07:58:51;7.70;99.90
71754;DHT22;59593;51.716;7.016;2023-11-21T08:01:17;7.80;99.90
71754;DHT22;59593;51.716;7.016;2023-11-21T08:03:43;7.80;99.90
71754;DHT22;59593;51.716;7.016;2023-11-21T08:06:09;7.90;99.90
71754;DHT22;59593;51.716;7.016;2023-11-21T08:08:35;7.90;99.90
71754;DHT22;59593;51.716;7.016;2023-11-21T08:11:01;8.20;99.90
71754;DHT22;59593;51.716;7.016;2023-11-21T08:13:28;8.30;99.90
71754;DHT22;59593;51.716;7.016;2023-11-21T08:15:54;8.30;99.90
71754;DHT22;59593;51.716;7.016;2023-11-21T08:18:20;8.30;99.90
71754;DHT22;59593;51.716;7.016;2023-11-21T08:20:45;8.30;99.90
71754;DHT22;59593;51.716;7.016;2023-11-21T08:23:17;8.20;99.90
71754;DHT22;59593;51.716;7.016;2023-11-21T08:25:43;8.20;99.90
71754;DHT22;59593;51.716;7.016;2023-11-21T08:28:09;8.10;99.90
71754;DHT22;59593;51.716;7.016;2023-11-21T08:30:35;8.10;99.90
71754;DHT22;59593;51.716;7.016;2023-11-21T08:33:01;8.10;99.90
71754;DHT22;59593;51.716;7.016;2023-11-21T08:35:28;8.10;99.90
71754;DHT22;59593;51.716;7.016;2023-11-21T08:37:54;8.20;99.90
71754;DHT22;59593;51.716;7.016;2023-11-21T08:40:20;8.10;99.90
71754;DHT22;59593;51.716;7.016;2023-11-21T08:42:47;8.10;99.90
71754;DHT22;59593;51.716;7.016;2023-11-21T08:45:13;8.10;99.90
71754;DHT22;59593;51.716;7.016;2023-11-21T08:47:39;8.20;99.90
71754;DHT22;59593;51.716;7.016;2023-11-21T08:50:06;8.20;99.90
71754;DHT22;59593;51.716;7.016;2023-11-21T08:52:33;8.20;99.90
71754;DHT22;59593;51.716;7.016;2023-11-21T08:54:59;8.20;99.90
71754;DHT22;59593;51.716;7.016;2023-11-21T08:57:28;8.10;99.90
71754;DHT22;59593;51.716;7.016;2023-11-21T08:59:53;8.20;99.90
71754;DHT22;59593;51.716;7.016;2023-11-21T09:02:25;8.10;99.90
71754;DHT22;59593;51.716;7.016;2023-11-21T09:04:51;8.00;99.90
71754;DHT22;59593;51.716;7.016;2023-11-21T09:07:20;8.00;99.90
71754;DHT22;59593;51.716;7.016;2023-11-21T09:09:46;8.10;99.90
71754;DHT22;59593;51.716;7.016;2023-11-21T09:12:13;8.20;99.90
71754;DHT22;59593;51.716;7.016;2023-11-21T09:14:38;8.30;99.90
71754;DHT22;59593;51.716;7.016;2023-11-21T09:17:05;8.40;99.90
71754;DHT22;59593;51.716;7.016;2023-11-21T09:19:38;8.50;99.90
71754;DHT22;59593;51.716;7.016;2023-11-21T09:22:04;8.60;99.90
71754;DHT22;59593;51.716;7.016;2023-11-21T09:24:31;8.60;99.90
71754;DHT22;59593;51.716;7.016;2023-11-21T09:26:57;8.60;99.90
71754;DHT22;59593;51.716;7.016;2023-11-21T09:29:22;8.60;99.90
71754;DHT22;59593;51.716;7.016;2023-11-21T09:31:48;8.70;99.90
71754;DHT22;59593;51.716;7.016;2023-11-21T09:34:16;8.50;99.90
71754;DHT22;59593;51.716;7.016;2023-11-21T09:36:45;8.60;99.90
71754;DHT22;59593;51.716;7.016;2023-11-21T09:39:11;8.60;99.90
71754;DHT22;59593;51.716;7.016;2023-11-21T09:41:55;8.60;99.90
71754;DHT22;59593;51.716;7.016;2023-11-21T09:44:35;8.80;99.90
71754;DHT22;59593;51.716;7.016;2023-11-21T09:47:02;8.70;99.90
71754;DHT22;59593;51.716;7.016;2023-11-21T09:49:28;8.70;99.90
71754;DHT22;59593;51.716;7.016;2023-11-21T09:52:01;8.70;99.90
71754;DHT22;59593;51.716;7.016;2023-11-21T09:54:30;8.70;99.90
71754;DHT22;59593;51.716;7.016;2023-11-21T09:57:00;8.80;99.90
71754;DHT22;59593;51.716;7.016;2023-11-21T09:59:30;9.00;99.90
71754;DHT22;59593;51.716;7.016;2023-11-21T10:01:58;9.00;99.90
71754;DHT22;59593;51.716;7.016;2023-11-21T10:04:24;8.90;99.90
71754;DHT22;59593;51.716;7.016;2023-11-21T10:06:50;8.90;99.90
71754;DHT22;59593;51.716;7.016;2023-11-21T10:09:16;8.80;99.90
71754;DHT22;59593;51.716;7.016;2023-11-21T10:11:43;8.90;99.90
71754;DHT22;59593;51.716;7.016;2023-11-21T10:14:13;9.10;99.90
71754;DHT22;59593;51.716;7.016;2023-11-21T10:16:41;9.20;99.90
71754;DHT22;59593;51.716;7.016;2023-11-21T10:19:10;9.30;99.90
71754;DHT22;59593;51.716;7.016;2023-11-21T10:21:38;9.50;99.90
71754;DHT22;59593;51.716;7.016;2023-11-21T10:24:04;9.50;99.90
71754;DHT22;59593;51.716;7.016;2023-11-21T10:26:32;9.30;99.90
71754;DHT22;59593;51.716;7.016;2023-11-21T10:28:59;9.20;99.90
71754;DHT22;59593;51.716;7.016;2023-11-21T10:31:32;9.10;99.90
71754;DHT22;59593;51.716;7.016;2023-11-21T10:34:14;9.00;99.90
71754;DHT22;59593;51.716;7.016;2023-11-21T10:36:40;9.00;99.90
71754;DHT22;59593;51.716;7.016;2023-11-21T10:39:05;9.00;99.90
71754;DHT22;59593;51.716;7.016;2023-11-21T10:41:32;9.00;99.90
71754;DHT22;59593;51.716;7.016;2023-11-21T10:43:57;9.20;99.90
71754;DHT22;59593;51.716;7.016;2023-11-21T10:46:23;9.10;99.90
71754;DHT22;59593;51.716;7.016;2023-11-21T10:48:54;9.20;99.90
71754;DHT22;59593;51.716;7.016;2023-11-21T10:51:21;9.40;99.90
71754;DHT22;59593;51.716;7.016;2023-11-21T10:53:47;9.50;99.90
71754;DHT22;59593;51.716;7.016;2023-11-21T10:56:16;9.50;99.90
71754;DHT22;59593;51.716;7.016;2023-11-21T10:58:50;9.50;99.90
71754;DHT22;59593;51.716;7.016;2023-11-21T11:01:18;9.40;99.90
71754;DHT22;59593;51.716;7.016;2023-11-21T11:03:44;9.40;99.90
71754;DHT22;59593;51.716;7.016;2023-11-21T11:06:10;9.30;99.90
71754;DHT22;59593;51.716;7.016;2023-11-21T11:08:40;9.40;99.90
71754;DHT22;59593;51.716;7.016;2023-11-21T11:11:07;9.40;99.90
71754;DHT22;59593;51.716;7.016;2023-11-21T11:13:32;9.30;99.90
71754;DHT22;59593;51.716;7.016;2023-11-21T11:15:59;9.50;99.90
71754;DHT22;59593;51.716;7.016;2023-11-21T11:18:30;9.40;99.90
71754;DHT22;59593;51.716;7.016;2023-11-21T11:21:11;9.40;99.90
71754;DHT22;59593;51.716;7.016;2023-11-21T11:23:55;9.40;99.90
71754;DHT22;59593;51.716;7.016;2023-11-21T11:26:47;9.50;99.90
71754;DHT22;59593;51.716;7.016;2023-11-21T11:29:32;9.50;99.90
71754;DHT22;59593;51.716;7.016;2023-11-21T11:32:22;9.40;99.90
71754;DHT22;59593;51.716;7.016;2023-11-21T11:35:04;9.50;99.90
71754;DHT22;59593;51.716;7.016;2023-11-21T11:37:32;9.40;99.90
71754;DHT22;59593;51.716;7.016;2023-11-21T11:39:58;9.40;99.90
71754;DHT22;59593;51.716;7.016;2023-11-21T11:42:26;9.40;99.90
71754;DHT22;59593;51.716;7.016;2023-11-21T11:44:52;9.40;99.90
71754;DHT22;59593;51.716;7.016;2023-11-21T11:47:25;9.40;99.90
71754;DHT22;59593;51.716;7.016;2023-11-21T11:52:49;9.50;99.90
71754;DHT22;59593;51.716;7.016;2023-11-21T11:55:19;9.40;99.90
71754;DHT22;59593;51.716;7.016;2023-11-21T11:57:50;9.50;99.90
71754;DHT22;59593;51.716;7.016;2023-11-21T12:00:20;9.70;99.90
71754;DHT22;59593;51.716;7.016;2023-11-21T12:02:56;9.70;99.90
71754;DHT22;59593;51.716;7.016;2023-11-21T12:05:22;9.70;99.90
71754;DHT22;59593;51.716;7.016;2023-11-21T12:07:52;9.70;99.90
71754;DHT22;59593;51.716;7.016;2023-11-21T12:10:27;9.60;99.90
71754;DHT22;59593;51.716;7.016;2023-11-21T12:12:55;9.60;99.90
71754;DHT22;59593;51.716;7.016;2023-11-21T12:15:22;9.80;99.90
71754;DHT22;59593;51.716;7.016;2023-11-21T12:17:48;9.80;99.90
71754;DHT22;59593;51.716;7.016;2023-11-21T12:20:18;9.70;99.90
71754;DHT22;59593;51.716;7.016;2023-11-21T12:22:48;9.70;99.90
71754;DHT22;59593;51.716;7.016;2023-11-21T12:25:15;9.70;99.90
71754;DHT22;59593;51.716;7.016;2023-11-21T12:27:46;9.70;99.90
71754;DHT22;59593;51.716;7.016;2023-11-21T12:30:15;9.60;99.90
71754;DHT22;59593;51.716;7.016;2023-11-21T12:32:43;9.70;99.90
71754;DHT22;59593;51.716;7.016;2023-11-21T12:35:09;9.70;99.90
71754;DHT22;59593;51.716;7.016;2023-11-21T12:37:40;9.70;99.90
71754;DHT22;59593;51.716;7.016;2023-11-21T12:40:08;9.60;99.90
71754;DHT22;59593;51.716;7.016;2023-11-21T12:42:38;9.70;99.90
71754;DHT22;59593;51.716;7.016;2023-11-21T12:45:19;9.60;99.90
71754;DHT22;59593;51.716;7.016;2023-11-21T12:47:49;9.60;99.90
71754;DHT22;59593;51.716;7.016;2023-11-21T12:50:19;9.50;99.90
71754;DHT22;59593;51.716;7.016;2023-11-21T12:52:49;9.50;99.90
71754;DHT22;59593;51.716;7.016;2023-11-21T12:55:16;9.50;99.90
71754;DHT22;59593;51.716;7.016;2023-11-21T12:57:44;9.50;99.90
71754;DHT22;59593;51.716;7.016;2023-11-21T13:00:10;9.50;99.90
71754;DHT22;59593;51.716;7.016;2023-11-21T13:02:41;9.50;99.90
71754;DHT22;59593;51.716;7.016;2023-11-21T13:05:09;9.60;99.90
71754;DHT22;59593;51.716;7.016;2023-11-21T13:07:44;9.70;99.90
71754;DHT22;59593;51.716;7.016;2023-11-21T13:10:13;9.70;99.90
71754;DHT22;59593;51.716;7.016;2023-11-21T13:12:46;9.80;99.90
71754;DHT22;59593;51.716;7.016;2023-11-21T13:15:14;9.70;99.90
71754;DHT22;59593;51.716;7.016;2023-11-21T13:17:44;9.70;99.90
71754;DHT22;59593;51.716;7.016;2023-11-21T13:20:13;9.70;99.90
71754;DHT22;59593;51.716;7.016;2023-11-21T13:22:57;9.70;99.90
71754;DHT22;59593;51.716;7.016;2023-11-21T13:25:24;9.60;99.90
71754;DHT22;59593;51.716;7.016;2023-11-21T13:27:54;9.70;99.90
71754;DHT22;59593;51.716;7.016;2023-11-21T13:30:20;9.70;99.90
71754;DHT22;59593;51.716;7.016;2023-11-21T13:32:52;9.60;99.90
71754;DHT22;59593;51.716;7.016;2023-11-21T13:35:18;9.50;99.90
71754;DHT22;59593;51.716;7.016;2023-11-21T13:37:56;9.50;99.90
71754;DHT22;59593;51.716;7.016;2023-11-21T13:40:25;9.50;99.90
71754;DHT22;59593;51.716;7.016;2023-11-21T13:42:55;9.50;99.90
71754;DHT22;59593;51.716;7.016;2023-11-21T13:45:25;9.50;99.90
71754;DHT22;59593;51.716;7.016;2023-11-21T13:47:52;9.40;99.90
71754;DHT22;59593;51.716;7.016;2023-11-21T13:50:20;9.40;99.90
71754;DHT22;59593;51.716;7.016;2023-11-21T13:52:50;9.40;99.90
71754;DHT22;59593;51.716;7.016;2023-11-21T13:55:19;9.40;99.90
71754;DHT22;59593;51.716;7.016;2023-11-21T13:57:47;9.30;99.90
71754;DHT22;59593;51.716;7.016;2023-11-21T14:00:18;9.30;99.90
71754;DHT22;59593;51.716;7.016;2023-11-21T14:03:15;9.30;99.90
71754;DHT22;59593;51.716;7.016;2023-11-21T14:05:47;9.20;99.90
71754;DHT22;59593;51.716;7.016;2023-11-21T14:08:20;9.30;99.90
71754;DHT22;59593;51.716;7.016;2023-11-21T14:10:49;9.30;99.90
71754;DHT22;59593;51.716;7.016;2023-11-21T14:13:23;9.30;99.90
71754;DHT22;59593;51.716;7.016;2023-11-21T14:15:50;9.30;99.90
71754;DHT22;59593;51.716;7.016;2023-11-21T14:18:28;9.30;99.90
71754;DHT22;59593;51.716;7.016;2023-11-21T14:21:04;9.20;99.90
71754;DHT22;59593;51.716;7.016;2023-11-21T14:23:31;9.20;99.90
71754;DHT22;59593;51.716;7.016;2023-11-21T14:25:56;9.20;99.90
71754;DHT22;59593;51.716;7.016;2023-11-21T14:28:23;9.20;99.90
71754;DHT22;59593;51.716;7.016;2023-11-21T14:30:49;9.20;99.90
71754;DHT22;59593;51.716;7.016;2023-11-21T14:33:14;9.10;99.90
71754;DHT22;59593;51.716;7.016;2023-11-21T14:35:42;9.20;99.90
71754;DHT22;59593;51.716;7.016;2023-11-21T14:38:08;9.20;99.90
71754;DHT22;59593;51.716;7.016;2023-11-21T14:40:35;9.10;99.90
71754;DHT22;59593;51.716;7.016;2023-11-21T14:43:02;9.10;99.90
71754;DHT22;59593;51.716;7.016;2023-11-21T14:45:31;9.10;99.90
71754;DHT22;59593;51.716;7.016;2023-11-21T14:47:56;9.20;99.90
71754;DHT22;59593;51.716;7.016;2023-11-21T14:50:34;9.20;99.90
71754;DHT22;59593;51.716;7.016;2023-11-21T14:53:13;9.20;99.90
71754;DHT22;59593;51.716;7.016;2023-11-21T14:55:39;9.10;99.90
71754;DHT22;59593;51.716;7.016;2023-11-21T14:58:11;9.10;99.90
71754;DHT22;59593;51.716;7.016;2023-11-21T15:00:41;9.00;99.90
71754;DHT22;59593;51.716;7.016;2023-11-21T15:03:10;9.00;99.90
71754;DHT22;59593;51.716;7.016;2023-11-21T15:05:47;9.00;99.90
71754;DHT22;59593;51.716;7.016;2023-11-21T15:08:14;9.10;99.90
71754;DHT22;59593;51.716;7.016;2023-11-21T15:10:49;8.90;99.90
71754;DHT22;59593;51.716;7.016;2023-11-21T15:13:19;8.90;99.90
71754;DHT22;59593;51.716;7.016;2023-11-21T15:15:45;8.80;99.90
71754;DHT22;59593;51.716;7.016;2023-11-21T15:18:11;8.80;99.90
71754;DHT22;59593;51.716;7.016;2023-11-21T15:20:39;8.70;99.90
71754;DHT22;59593;51.716;7.016;2023-11-21T15:23:05;8.60;99.90
71754;DHT22;59593;51.716;7.016;2023-11-21T15:25:31;8.70;99.90
71754;DHT22;59593;51.716;7.016;2023-11-21T15:27:57;8.70;99.90
71754;DHT22;59593;51.716;7.016;2023-11-21T15:30:23;8.80;99.90
71754;DHT22;59593;51.716;7.016;2023-11-21T15:32:51;8.60;99.90
71754;DHT22;59593;51.716;7.016;2023-11-21T15:35:18;8.50;99.90
71754;DHT22;59593;51.716;7.016;2023-11-21T15:37:44;8.40;99.90
71754;DHT22;59593;51.716;7.016;2023-11-21T15:40:11;8.30;99.90
71754;DHT22;59593;51.716;7.016;2023-11-21T15:42:36;8.30;99.90
71754;DHT22;59593;51.716;7.016;2023-11-21T15:45:03;8.20;99.90
71754;DHT22;59593;51.716;7.016;2023-11-21T15:47:33;8.20;99.90
71754;DHT22;59593;51.716;7.016;2023-11-21T15:50:03;8.20;99.90